Main page
METAR-TAF:

METAR-TAF

Airports :

Podgorica, Montenegro

Podgorica Airport

latitude: 42-26N, longitude: 019-17E, elevation: 53 m

Current weather observation

The report was made 29 minutes ago, at 22:00 UTC
Wind 2 kt from variable directions
Temperature 25°C
Humidity 57%
Pressure 1013 hPa
Visibility 10 km or more
no clouds below 1500 m and no cumulonimbus

METAR: LYPG 192200Z VRB02KT CAVOK 25/16 Q1013 NOSIG

Time: 00:29 (22:29 UTC)

Forecast

The report was made 5 hours and 29 minutes ago, at 17:00 UTC
Forecast valid from 19 at 18 UTC to 20 at 18 UTC
Wind 5 kt from the North
Visibility 10 km or more
no clouds below 1500 m and no cumulonimbus

TAF: LYPG 191700Z 1918/2018 36005KT CAVOK TX36/2014Z TN21/2004Z

Weather observations and forecasts of more than 4000 airports (METAR and TAF reports).

The available stations are represented by yellow and red dots on the map.

Hover mouse over dot to see the name of the station.

Then click to see weather observations and forecasts.

To change the map : click on the green buttons with a black cross to zoom in, on the green button with a dash to zoom out, or on the green arrows for adjacent maps.


METAR-TAF: